KQWF/QWF METAR and TAF weather

Enter ICAO airport designator
Station Type Date Time Source
KQWF METAR 2007/06/07 08:55 UTC NOAA

KQWF 070855Z AUTO 19002KT 6SM FEW190 26/17 A3057 RMK AO2 SLP353


Station Type Date Time Source
KQWF Decoded METAR 2007/06/07 08:55 UTC NOAA

Error!

Station Type Date Time Source
KQWF TAF UTC NOAA

Error!


Example: see airport list